Terminal Aerodrome Forecast
Issued by NWS

Home | Current Version | Previous Version | Text Only | Print | Product List | Glossary On
Versions: 1 2 3 4 5 6 7 8 9 10 11 12 13 14 15 16
328
FTUS43 KSGF 241457 AAA
TAFJLN
TAF AMD
KJLN 241457Z 2415/2512 15005KT P6SM VCSH SCT060
      TEMPO 2415/2416 -SHRA BKN050
     FM241600 17007KT P6SM VCTS BKN050CB
      TEMPO 2417/2421 5SM -TSRA BKN030CB
     FM250000 16006KT P6SM BKN200=

USA.gov is the U.S. government's official web portal to all federal, state and local government web resources and services.